createdAt,value
2023-02-16T00:01:22.307Z,9.40
2023-02-16T00:04:11.959Z,9.40
2023-02-16T00:06:54.764Z,9.40
2023-02-16T00:09:44.882Z,9.40
2023-02-16T00:12:44.001Z,9.30
2023-02-16T00:15:33.906Z,9.20
2023-02-16T00:18:24.927Z,9.20
2023-02-16T00:21:07.068Z,9.10
2023-02-16T00:23:55.921Z,9.10
2023-02-16T00:26:42.105Z,9.00
2023-02-16T00:29:33.951Z,9.10
2023-02-16T00:32:26.951Z,9.10
2023-02-16T00:35:21.905Z,9.00
2023-02-16T00:38:04.756Z,9.00
2023-02-16T00:40:52.912Z,9.00
2023-02-16T00:43:38.156Z,9.10
2023-02-16T00:46:26.982Z,9.10
2023-02-16T00:49:09.147Z,9.10
2023-02-16T00:51:58.018Z,9.10
2023-02-16T00:54:40.148Z,9.00
2023-02-16T00:57:28.971Z,8.90
2023-02-16T01:00:21.924Z,9.00
2023-02-16T01:03:08.420Z,9.00
2023-02-16T01:05:56.940Z,9.00
2023-02-16T01:09:09.023Z,9.00
2023-02-16T01:11:57.932Z,9.00
2023-02-16T01:14:41.163Z,9.00
2023-02-16T01:17:31.933Z,8.90
2023-02-16T01:20:23.158Z,8.80
2023-02-16T01:23:11.930Z,8.80
2023-02-16T01:26:00.936Z,8.90
2023-02-16T01:28:43.797Z,8.90
2023-02-16T01:31:33.070Z,8.90
2023-02-16T01:34:16.227Z,9.00
2023-02-16T01:37:05.030Z,9.00
2023-02-16T01:39:47.148Z,9.00
2023-02-16T01:42:49.979Z,9.00
2023-02-16T01:45:35.908Z,8.90
2023-02-16T01:48:35.941Z,8.90
2023-02-16T01:51:32.001Z,9.00
2023-02-16T01:54:20.183Z,8.90
2023-02-16T01:57:13.005Z,8.90
2023-02-16T02:00:14.176Z,9.00
2023-02-16T02:03:24.946Z,9.00
2023-02-16T02:06:06.128Z,9.00
2023-02-16T02:09:01.958Z,9.00
2023-02-16T02:11:49.218Z,9.00
2023-02-16T02:14:40.996Z,9.10
2023-02-16T02:17:34.040Z,9.10
2023-02-16T02:20:22.933Z,9.10
2023-02-16T02:23:40.942Z,9.10
2023-02-16T02:26:57.032Z,9.10
2023-02-16T02:30:34.009Z,9.10
2023-02-16T02:33:43.032Z,9.10
2023-02-16T02:36:36.202Z,9.20
2023-02-16T02:39:39.034Z,9.30
2023-02-16T02:42:29.204Z,9.30
2023-02-16T02:45:23.042Z,9.20
2023-02-16T02:48:05.124Z,9.20
2023-02-16T02:51:15.951Z,9.20
2023-02-16T02:54:22.040Z,9.10
2023-02-16T02:57:31.764Z,9.00
2023-02-16T03:00:42.054Z,9.00
2023-02-16T03:03:30.331Z,9.00
2023-02-16T03:06:21.987Z,8.90
2023-02-16T03:09:21.076Z,8.90
2023-02-16T03:12:27.965Z,8.90
2023-02-16T03:15:12.141Z,8.90
2023-02-16T03:18:22.022Z,8.90
2023-02-16T03:21:28.971Z,9.00
2023-02-16T03:24:32.471Z,9.00
2023-02-16T03:27:40.000Z,9.00
2023-02-16T03:30:23.202Z,9.00
2023-02-16T03:33:13.001Z,9.00
2023-02-16T03:35:55.390Z,9.00
2023-02-16T03:38:44.028Z,9.00
2023-02-16T03:41:26.770Z,9.00
2023-02-16T03:44:15.055Z,9.00
2023-02-16T03:47:03.980Z,8.90
2023-02-16T03:49:47.194Z,9.10
2023-02-16T03:52:35.010Z,9.00
2023-02-16T03:55:17.288Z,9.10
2023-02-16T03:58:05.070Z,9.10
2023-02-16T04:00:47.163Z,9.20
2023-02-16T04:03:34.975Z,9.20
2023-02-16T04:06:18.203Z,9.30
2023-02-16T04:09:05.960Z,9.20
2023-02-16T04:12:12.107Z,9.30
2023-02-16T04:14:53.984Z,9.20
2023-02-16T04:17:42.977Z,9.40
2023-02-16T04:20:27.337Z,9.40
2023-02-16T04:23:18.021Z,9.40
2023-02-16T04:25:59.947Z,9.40
2023-02-16T04:28:48.969Z,9.30
2023-02-16T04:31:30.998Z,9.50
2023-02-16T04:34:19.993Z,9.50
2023-02-16T04:37:02.353Z,9.50
2023-02-16T04:39:52.009Z,9.50
2023-02-16T04:42:39.990Z,9.60
2023-02-16T04:45:22.257Z,9.50
2023-02-16T04:48:10.082Z,9.40
2023-02-16T04:50:52.229Z,9.30
2023-02-16T04:53:40.001Z,9.30
2023-02-16T04:56:24.276Z,9.40
2023-02-16T04:59:12.000Z,9.40
2023-02-16T05:01:54.385Z,9.40
2023-02-16T05:04:43.059Z,9.50
2023-02-16T05:07:32.026Z,9.50
2023-02-16T05:10:20.244Z,9.70
2023-02-16T05:13:21.081Z,9.70
2023-02-16T05:16:03.030Z,9.70
2023-02-16T05:18:51.998Z,9.80
2023-02-16T05:21:35.330Z,9.90
2023-02-16T05:24:28.218Z,9.80
2023-02-16T05:27:12.844Z,9.70
2023-02-16T05:30:03.065Z,9.60
2023-02-16T05:32:50.991Z,9.60
2023-02-16T05:35:33.257Z,9.60
2023-02-16T05:38:22.008Z,9.60
2023-02-16T05:41:04.623Z,9.60
2023-02-16T05:43:52.030Z,9.80
2023-02-16T05:46:37.277Z,9.80
2023-02-16T05:49:26.038Z,9.80
2023-02-16T05:52:08.303Z,9.70
2023-02-16T05:54:57.021Z,9.70
2023-02-16T05:57:39.319Z,9.80
2023-02-16T06:00:28.036Z,9.60
2023-02-16T06:03:18.073Z,9.70
2023-02-16T06:06:02.881Z,9.70
2023-02-16T06:08:52.065Z,9.70
2023-02-16T06:11:37.011Z,9.70
2023-02-16T06:14:28.075Z,9.70
2023-02-16T06:17:09.999Z,9.70
2023-02-16T06:20:00.118Z,9.60
2023-02-16T06:22:42.094Z,9.60
2023-02-16T06:25:31.031Z,9.60
2023-02-16T06:28:20.064Z,9.60
2023-02-16T06:31:02.814Z,9.70
2023-02-16T06:33:52.028Z,9.70
2023-02-16T06:36:35.406Z,9.80
2023-02-16T06:39:24.056Z,9.80
2023-02-16T06:42:06.305Z,9.70
2023-02-16T06:44:55.021Z,9.80
2023-02-16T06:47:37.283Z,9.80
2023-02-16T06:50:26.049Z,9.80
2023-02-16T06:53:16.088Z,9.80
2023-02-16T06:55:57.911Z,9.90
2023-02-16T06:58:47.049Z,9.90
2023-02-16T07:01:29.454Z,9.90
2023-02-16T07:04:18.081Z,9.90
2023-02-16T07:07:00.197Z,9.80
2023-02-16T07:09:52.096Z,9.90
2023-02-16T07:12:33.985Z,9.90
2023-02-16T07:15:24.130Z,9.90
2023-02-16T07:18:06.478Z,10.00
2023-02-16T07:20:55.066Z,9.70
2023-02-16T07:23:43.057Z,9.80
2023-02-16T07:26:26.293Z,9.70
2023-02-16T07:29:15.070Z,9.80
2023-02-16T07:31:57.874Z,9.80
2023-02-16T07:34:47.054Z,9.80
2023-02-16T07:37:29.391Z,9.80
2023-02-16T07:40:18.105Z,9.90
2023-02-16T07:43:01.463Z,9.90
2023-02-16T07:45:50.095Z,9.90
2023-02-16T07:48:39.059Z,10.10
2023-02-16T07:51:24.659Z,10.10
2023-02-16T07:54:15.152Z,10.20
2023-02-16T07:56:57.016Z,10.20
2023-02-16T07:59:47.086Z,10.20
2023-02-16T08:02:29.040Z,10.10
2023-02-16T08:05:18.077Z,10.00
2023-02-16T08:08:00.031Z,10.00
2023-02-16T08:10:49.076Z,10.00
2023-02-16T08:13:31.024Z,10.00
2023-02-16T08:16:24.275Z,9.90
2023-02-16T08:19:13.092Z,10.00
2023-02-16T08:21:55.358Z,10.10
2023-02-16T08:24:44.063Z,10.10
2023-02-16T08:27:26.893Z,10.10
2023-02-16T08:30:19.105Z,10.20
2023-02-16T08:33:02.309Z,10.30
2023-02-16T08:35:52.078Z,10.20
2023-02-16T08:38:34.426Z,10.30
2023-02-16T08:41:22.092Z,10.30
2023-02-16T08:44:04.366Z,10.40
2023-02-16T08:46:54.103Z,10.30
2023-02-16T08:49:46.073Z,10.40
2023-02-16T08:52:28.243Z,10.60
2023-02-16T08:55:17.128Z,10.70
2023-02-16T08:58:00.712Z,10.70
2023-02-16T09:00:50.180Z,10.80
2023-02-16T09:03:35.674Z,10.70
2023-02-16T09:06:27.211Z,10.70
2023-02-16T09:09:10.547Z,10.70
2023-02-16T09:11:59.104Z,10.70
2023-02-16T09:14:42.000Z,10.70
2023-02-16T09:17:31.133Z,10.60
2023-02-16T09:20:13.859Z,10.60
2023-02-16T09:23:03.073Z,10.70
2023-02-16T09:25:45.055Z,10.70
2023-02-16T09:28:34.077Z,10.70
2023-02-16T09:31:20.464Z,10.70
2023-02-16T09:34:11.153Z,10.70
2023-02-16T09:36:53.104Z,10.80
2023-02-16T09:39:43.113Z,10.80
2023-02-16T09:42:41.108Z,10.70
2023-02-16T09:45:25.442Z,10.90
2023-02-16T09:48:14.071Z,10.90
2023-02-16T09:50:58.500Z,10.90
2023-02-16T09:53:49.107Z,10.90
2023-02-16T09:56:37.293Z,10.90
2023-02-16T09:59:49.210Z,11.00
2023-02-16T10:02:52.124Z,11.00
2023-02-16T10:05:44.560Z,10.80
2023-02-16T10:08:41.128Z,10.70
2023-02-16T10:11:46.940Z,10.90
2023-02-16T10:14:38.180Z,11.10
2023-02-16T10:17:28.386Z,11.20
2023-02-16T10:20:25.176Z,11.20
2023-02-16T10:23:31.115Z,11.30
2023-02-16T10:26:25.641Z,11.50
2023-02-16T10:29:19.129Z,11.70
2023-02-16T10:32:10.512Z,11.70
2023-02-16T10:35:03.106Z,11.90
2023-02-16T10:37:56.405Z,12.00
2023-02-16T10:40:53.157Z,12.00
2023-02-16T10:43:54.209Z,12.10
2023-02-16T10:46:41.610Z,12.10
2023-02-16T10:49:32.131Z,11.90
2023-02-16T10:52:14.127Z,12.00
2023-02-16T10:55:03.156Z,12.20
2023-02-16T10:57:51.643Z,12.40
2023-02-16T11:00:52.132Z,12.50
2023-02-16T11:03:45.180Z,12.40
2023-02-16T11:06:37.145Z,12.50
2023-02-16T11:09:33.271Z,12.60
2023-02-16T11:12:24.391Z,12.80
2023-02-16T11:15:10.154Z,13.00
2023-02-16T11:17:53.579Z,13.00
2023-02-16T11:20:46.223Z,13.00
2023-02-16T11:23:30.193Z,13.20
2023-02-16T11:26:22.190Z,13.10
2023-02-16T11:29:18.402Z,13.20
2023-02-16T11:32:07.315Z,13.30
2023-02-16T11:34:51.457Z,13.30
2023-02-16T11:37:44.195Z,13.30
2023-02-16T11:40:30.187Z,13.40
2023-02-16T11:43:19.202Z,13.40
2023-02-16T11:46:10.174Z,13.50
2023-02-16T11:48:53.654Z,13.50
2023-02-16T11:51:43.159Z,13.50
2023-02-16T11:54:27.808Z,13.60
2023-02-16T11:57:17.128Z,13.60
2023-02-16T11:59:59.405Z,13.60
2023-02-16T12:03:23.136Z,13.60
2023-02-16T12:06:19.576Z,13.40
2023-02-16T12:09:20.125Z,13.40
2023-02-16T12:12:20.169Z,13.50
2023-02-16T12:15:07.724Z,13.50
2023-02-16T12:18:18.169Z,13.80
2023-02-16T12:21:07.939Z,14.00
2023-02-16T12:24:06.166Z,13.90
2023-02-16T12:26:52.910Z,13.90
2023-02-16T12:29:54.234Z,13.90
2023-02-16T12:32:57.767Z,13.80
2023-02-16T12:36:04.426Z,13.80
2023-02-16T12:39:05.153Z,13.80
2023-02-16T12:42:00.576Z,13.80
2023-02-16T12:44:56.124Z,14.00
2023-02-16T12:47:44.403Z,14.20
2023-02-16T12:50:35.173Z,14.40
2023-02-16T12:53:34.146Z,14.50
2023-02-16T12:56:28.161Z,14.40
2023-02-16T12:59:24.429Z,14.20
2023-02-16T13:02:25.172Z,14.00
2023-02-16T13:05:12.397Z,14.00
2023-02-16T13:08:05.207Z,14.10
2023-02-16T13:11:04.788Z,14.20
2023-02-16T13:13:48.169Z,14.20
2023-02-16T13:16:46.339Z,14.20
2023-02-16T13:19:29.557Z,14.10
2023-02-16T13:22:59.185Z,14.00
2023-02-16T13:26:03.752Z,13.80
2023-02-16T13:29:08.412Z,13.80
2023-02-16T13:31:59.577Z,13.90
2023-02-16T13:35:25.237Z,14.00
2023-02-16T13:38:25.223Z,13.90
2023-02-16T13:41:33.189Z,13.90
2023-02-16T13:44:26.308Z,14.00
2023-02-16T13:47:12.662Z,14.00
2023-02-16T13:50:03.311Z,14.00
2023-02-16T13:52:46.851Z,14.00
2023-02-16T13:55:43.174Z,14.10
2023-02-16T13:58:33.653Z,14.20
2023-02-16T14:01:48.173Z,14.20
2023-02-16T14:05:10.203Z,14.30
2023-02-16T14:08:12.565Z,14.40
2023-02-16T14:11:23.239Z,14.20
2023-02-16T14:14:25.720Z,14.20
2023-02-16T14:17:38.306Z,14.30
2023-02-16T14:20:35.325Z,14.30
2023-02-16T14:23:36.836Z,14.20
2023-02-16T14:26:25.210Z,14.30
2023-02-16T14:29:17.314Z,14.30
2023-02-16T14:32:12.263Z,14.30
2023-02-16T14:35:00.413Z,14.50
2023-02-16T14:37:52.243Z,14.60
2023-02-16T14:41:03.184Z,14.60
2023-02-16T14:43:46.600Z,14.50
2023-02-16T14:46:58.234Z,14.40
2023-02-16T14:50:09.387Z,14.30
2023-02-16T14:53:19.285Z,14.50
2023-02-16T14:56:31.429Z,14.60
2023-02-16T14:59:27.197Z,14.50
2023-02-16T15:02:42.238Z,14.50
2023-02-16T15:05:28.945Z,14.50
2023-02-16T15:08:29.249Z,14.50
2023-02-16T15:11:34.285Z,14.60
2023-02-16T15:14:24.243Z,14.60
2023-02-16T15:17:06.523Z,14.60
2023-02-16T15:19:55.240Z,14.60
2023-02-16T15:22:44.290Z,14.50
2023-02-16T15:25:36.243Z,14.30
2023-02-16T15:28:36.314Z,14.30
2023-02-16T15:31:23.977Z,14.10
2023-02-16T15:34:14.299Z,14.00
2023-02-16T15:36:57.220Z,13.90
2023-02-16T15:40:03.012Z,13.80
2023-02-16T15:42:51.954Z,13.70
2023-02-16T15:45:47.243Z,13.80
2023-02-16T15:48:44.265Z,13.60
2023-02-16T15:51:31.532Z,13.50
2023-02-16T15:54:28.324Z,13.40
2023-02-16T15:57:16.754Z,13.30
2023-02-16T16:00:08.227Z,13.20
2023-02-16T16:02:54.264Z,13.10
2023-02-16T16:05:47.264Z,13.10
2023-02-16T16:08:31.129Z,13.10
2023-02-16T16:11:21.510Z,13.10
2023-02-16T16:14:07.332Z,13.10
2023-02-16T16:16:57.552Z,13.00
2023-02-16T16:19:47.338Z,13.10
2023-02-16T16:22:44.029Z,13.00
2023-02-16T16:25:50.274Z,13.00
2023-02-16T16:28:43.754Z,12.90
2023-02-16T16:31:42.481Z,12.90
2023-02-16T16:34:50.344Z,12.90
2023-02-16T16:37:36.866Z,12.70
2023-02-16T16:40:36.275Z,12.70
2023-02-16T16:43:19.355Z,12.50
2023-02-16T16:46:24.400Z,12.50
2023-02-16T16:49:12.808Z,12.50
2023-02-16T16:52:07.226Z,12.50
2023-02-16T16:54:50.783Z,12.50
2023-02-16T16:57:39.286Z,12.60
2023-02-16T17:00:22.917Z,12.60
2023-02-16T17:03:13.277Z,12.50
2023-02-16T17:06:02.472Z,12.60
2023-02-16T17:08:44.516Z,12.70
2023-02-16T17:11:38.345Z,12.70
2023-02-16T17:14:26.996Z,12.80
2023-02-16T17:17:19.244Z,12.70
2023-02-16T17:20:01.477Z,12.70
2023-02-16T17:22:49.344Z,12.70
2023-02-16T17:25:31.529Z,12.80
2023-02-16T17:28:23.389Z,12.70
2023-02-16T17:31:12.390Z,12.70
2023-02-16T17:33:54.414Z,12.70
2023-02-16T17:36:47.445Z,12.60
2023-02-16T17:39:29.628Z,12.70
2023-02-16T17:42:18.264Z,12.70
2023-02-16T17:45:01.684Z,12.80
2023-02-16T17:47:50.384Z,12.90
2023-02-16T17:50:33.061Z,12.90
2023-02-16T17:53:26.256Z,12.90
2023-02-16T17:56:11.723Z,12.80
2023-02-16T17:58:53.255Z,12.70
2023-02-16T18:01:44.252Z,12.80
2023-02-16T18:04:26.351Z,12.70
2023-02-16T18:07:15.320Z,12.70
2023-02-16T18:10:10.282Z,12.50
2023-02-16T18:12:58.295Z,12.30
2023-02-16T18:15:40.528Z,12.20
2023-02-16T18:18:30.268Z,12.20
2023-02-16T18:21:12.595Z,12.20
2023-02-16T18:24:00.399Z,12.20
2023-02-16T18:26:49.265Z,12.20
2023-02-16T18:29:31.252Z,12.30
2023-02-16T18:32:20.307Z,12.30
2023-02-16T18:35:04.255Z,12.20
2023-02-16T18:37:53.316Z,12.20
2023-02-16T18:40:35.387Z,12.20
2023-02-16T18:43:25.451Z,12.20
2023-02-16T18:46:08.355Z,12.00
2023-02-16T18:48:57.272Z,12.00
2023-02-16T18:51:47.284Z,12.00
2023-02-16T18:54:29.596Z,12.10
2023-02-16T18:57:17.407Z,12.00
2023-02-16T18:59:59.867Z,12.00
2023-02-16T19:02:48.272Z,11.90
2023-02-16T19:05:31.514Z,11.90
2023-02-16T19:08:21.306Z,11.80
2023-02-16T19:11:03.485Z,11.80
2023-02-16T19:13:52.373Z,11.80
2023-02-16T19:16:34.455Z,11.80
2023-02-16T19:19:23.310Z,11.70
2023-02-16T19:22:12.333Z,11.70
2023-02-16T19:24:55.697Z,11.60
2023-02-16T19:27:44.367Z,11.80
2023-02-16T19:30:26.299Z,11.70
2023-02-16T19:33:15.324Z,11.60
2023-02-16T19:36:02.869Z,11.70
2023-02-16T19:38:51.292Z,11.80
2023-02-16T19:41:37.211Z,11.80
2023-02-16T19:44:27.345Z,11.90
2023-02-16T19:47:16.375Z,11.90
2023-02-16T19:49:58.519Z,11.90
2023-02-16T19:52:46.337Z,11.90
2023-02-16T19:55:28.737Z,11.90
2023-02-16T19:58:18.360Z,12.00
2023-02-16T20:01:00.548Z,11.90
2023-02-16T20:03:49.344Z,11.90
2023-02-16T20:06:34.643Z,11.90
2023-02-16T20:09:24.344Z,11.90
2023-02-16T20:12:20.307Z,11.90
2023-02-16T20:15:03.789Z,11.90
2023-02-16T20:17:53.552Z,12.00
2023-02-16T20:20:36.642Z,12.10
2023-02-16T20:23:25.342Z,12.00
2023-02-16T20:26:09.237Z,12.00
2023-02-16T20:28:58.395Z,12.00
2023-02-16T20:31:44.401Z,12.00
2023-02-16T20:34:33.327Z,12.00
2023-02-16T20:37:28.316Z,12.10
2023-02-16T20:40:11.249Z,12.10
2023-02-16T20:43:00.497Z,12.10
2023-02-16T20:45:43.015Z,12.10
2023-02-16T20:48:33.394Z,12.20
2023-02-16T20:51:15.439Z,12.20
2023-02-16T20:54:04.416Z,12.20
2023-02-16T20:56:46.319Z,12.20
2023-02-16T20:59:35.332Z,12.20
2023-02-16T21:02:17.385Z,12.30
2023-02-16T21:05:07.353Z,12.30
2023-02-16T21:07:55.482Z,12.30
2023-02-16T21:10:58.334Z,12.30
2023-02-16T21:13:48.352Z,12.40
2023-02-16T21:16:30.661Z,12.40
2023-02-16T21:19:23.255Z,12.30
2023-02-16T21:22:06.698Z,12.30
2023-02-16T21:24:55.321Z,12.30
2023-02-16T21:27:44.324Z,12.40
2023-02-16T21:30:26.477Z,12.50
2023-02-16T21:33:15.314Z,12.50
2023-02-16T21:36:04.848Z,12.60
2023-02-16T21:38:56.306Z,12.60
2023-02-16T21:41:37.315Z,12.50
2023-02-16T21:44:28.347Z,12.60
2023-02-16T21:47:30.018Z,12.50
2023-02-16T21:50:18.370Z,12.50
2023-02-16T21:53:00.378Z,12.40
2023-02-16T21:56:09.384Z,12.40
2023-02-16T21:58:58.440Z,12.50
2023-02-16T22:01:43.240Z,12.40
2023-02-16T22:04:32.443Z,12.50
2023-02-16T22:07:17.104Z,12.50
2023-02-16T22:10:05.472Z,12.50
2023-02-16T22:12:55.576Z,12.50
2023-02-16T22:15:37.416Z,12.60
2023-02-16T22:18:19.276Z,12.60
2023-02-16T22:21:08.331Z,12.60
2023-02-16T22:23:56.349Z,12.50
2023-02-16T22:26:41.590Z,12.60
2023-02-16T22:29:31.429Z,12.70
2023-02-16T22:32:13.666Z,12.80
2023-02-16T22:35:02.360Z,12.70
2023-02-16T22:37:44.707Z,12.70
2023-02-16T22:40:32.341Z,12.50
2023-02-16T22:43:14.624Z,12.50
2023-02-16T22:46:04.984Z,12.60
2023-02-16T22:48:46.721Z,12.60
2023-02-16T22:51:36.377Z,12.60
2023-02-16T22:54:27.395Z,12.60
2023-02-16T22:57:09.265Z,12.60
2023-02-16T22:59:58.364Z,12.50
2023-02-16T23:02:41.954Z,12.60
2023-02-16T23:05:30.387Z,12.50
2023-02-16T23:08:12.666Z,12.50
2023-02-16T23:11:10.438Z,12.60
2023-02-16T23:13:52.757Z,12.60
2023-02-16T23:16:42.486Z,12.60
2023-02-16T23:19:34.361Z,12.60
2023-02-16T23:22:17.987Z,12.60
2023-02-16T23:25:23.384Z,12.60
2023-02-16T23:28:05.581Z,12.60
2023-02-16T23:30:58.283Z,12.60
2023-02-16T23:33:40.622Z,12.50
2023-02-16T23:36:30.363Z,12.50
2023-02-16T23:39:22.427Z,12.50
2023-02-16T23:42:04.335Z,12.50
2023-02-16T23:44:53.450Z,12.50
2023-02-16T23:47:35.310Z,12.50
2023-02-16T23:50:24.372Z,12.60
2023-02-16T23:53:07.812Z,12.60
2023-02-16T23:55:56.338Z,12.60
2023-02-16T23:58:41.467Z,12.60
